sensor_id;sensor_type;location;lat;lon;timestamp;P1;durP1;ratioP1;P2;durP2;ratioP2
28343;SDS011;15597;50.914;6.638;2023-03-15T00:01:58;7.60;;;2.22;;
28343;SDS011;15597;50.914;6.638;2023-03-15T00:04:24;15.63;;;3.80;;
28343;SDS011;15597;50.914;6.638;2023-03-15T00:06:52;10.48;;;2.40;;
28343;SDS011;15597;50.914;6.638;2023-03-15T00:09:18;12.75;;;2.95;;
28343;SDS011;15597;50.914;6.638;2023-03-15T00:11:47;10.93;;;3.03;;
28343;SDS011;15597;50.914;6.638;2023-03-15T00:14:13;8.75;;;2.47;;
28343;SDS011;15597;50.914;6.638;2023-03-15T00:16:39;9.43;;;2.67;;
28343;SDS011;15597;50.914;6.638;2023-03-15T00:19:07;7.45;;;2.90;;
28343;SDS011;15597;50.914;6.638;2023-03-15T00:21:33;9.05;;;2.35;;
28343;SDS011;15597;50.914;6.638;2023-03-15T00:23:59;8.93;;;2.85;;
28343;SDS011;15597;50.914;6.638;2023-03-15T00:26:25;8.52;;;2.47;;
28343;SDS011;15597;50.914;6.638;2023-03-15T00:28:51;9.45;;;2.70;;
28343;SDS011;15597;50.914;6.638;2023-03-15T00:31:17;13.23;;;3.97;;
28343;SDS011;15597;50.914;6.638;2023-03-15T00:33:44;19.42;;;5.50;;
28343;SDS011;15597;50.914;6.638;2023-03-15T00:36:11;12.70;;;3.40;;
28343;SDS011;15597;50.914;6.638;2023-03-15T00:38:37;12.77;;;4.15;;
28343;SDS011;15597;50.914;6.638;2023-03-15T00:41:08;14.27;;;2.90;;
28343;SDS011;15597;50.914;6.638;2023-03-15T00:43:36;9.27;;;2.95;;
28343;SDS011;15597;50.914;6.638;2023-03-15T00:46:02;9.27;;;3.15;;
28343;SDS011;15597;50.914;6.638;2023-03-15T00:48:28;9.98;;;3.78;;
28343;SDS011;15597;50.914;6.638;2023-03-15T00:51:07;9.48;;;2.97;;
28343;SDS011;15597;50.914;6.638;2023-03-15T00:53:40;8.77;;;2.33;;
28343;SDS011;15597;50.914;6.638;2023-03-15T00:56:08;8.35;;;2.50;;
28343;SDS011;15597;50.914;6.638;2023-03-15T00:58:36;10.57;;;2.63;;
28343;SDS011;15597;50.914;6.638;2023-03-15T01:01:09;10.50;;;3.20;;
28343;SDS011;15597;50.914;6.638;2023-03-15T01:03:40;7.80;;;2.50;;
28343;SDS011;15597;50.914;6.638;2023-03-15T01:06:07;8.77;;;2.47;;
28343;SDS011;15597;50.914;6.638;2023-03-15T01:08:34;13.93;;;3.67;;
28343;SDS011;15597;50.914;6.638;2023-03-15T01:11:01;13.02;;;3.80;;
28343;SDS011;15597;50.914;6.638;2023-03-15T01:13:28;15.30;;;3.25;;
28343;SDS011;15597;50.914;6.638;2023-03-15T01:15:54;12.13;;;3.17;;
28343;SDS011;15597;50.914;6.638;2023-03-15T01:18:19;7.88;;;2.30;;
28343;SDS011;15597;50.914;6.638;2023-03-15T01:20:45;10.77;;;3.35;;
28343;SDS011;15597;50.914;6.638;2023-03-15T01:23:10;13.68;;;3.40;;
28343;SDS011;15597;50.914;6.638;2023-03-15T01:25:36;10.70;;;3.13;;
28343;SDS011;15597;50.914;6.638;2023-03-15T01:28:01;10.75;;;4.03;;
28343;SDS011;15597;50.914;6.638;2023-03-15T01:30:27;12.70;;;3.92;;
28343;SDS011;15597;50.914;6.638;2023-03-15T01:32:53;12.13;;;3.45;;
28343;SDS011;15597;50.914;6.638;2023-03-15T01:35:18;10.38;;;3.13;;
28343;SDS011;15597;50.914;6.638;2023-03-15T01:37:44;7.82;;;3.03;;
28343;SDS011;15597;50.914;6.638;2023-03-15T01:53:47;10.93;;;3.70;;
28343;SDS011;15597;50.914;6.638;2023-03-15T01:56:33;13.32;;;3.13;;
28343;SDS011;15597;50.914;6.638;2023-03-15T01:59:02;13.95;;;4.00;;
28343;SDS011;15597;50.914;6.638;2023-03-15T02:01:30;12.35;;;3.17;;
28343;SDS011;15597;50.914;6.638;2023-03-15T02:04:01;9.48;;;3.00;;
28343;SDS011;15597;50.914;6.638;2023-03-15T02:06:34;8.98;;;3.35;;
28343;SDS011;15597;50.914;6.638;2023-03-15T02:09:02;7.25;;;2.60;;
28343;SDS011;15597;50.914;6.638;2023-03-15T02:11:34;8.50;;;2.58;;
28343;SDS011;15597;50.914;6.638;2023-03-15T02:14:01;7.97;;;3.10;;
28343;SDS011;15597;50.914;6.638;2023-03-15T02:16:28;7.00;;;2.20;;
28343;SDS011;15597;50.914;6.638;2023-03-15T02:18:58;8.82;;;2.30;;
28343;SDS011;15597;50.914;6.638;2023-03-15T02:24:24;6.53;;;2.70;;
28343;SDS011;15597;50.914;6.638;2023-03-15T02:27:03;7.47;;;2.45;;
28343;SDS011;15597;50.914;6.638;2023-03-15T02:29:29;7.00;;;2.58;;
28343;SDS011;15597;50.914;6.638;2023-03-15T02:31:55;6.30;;;2.28;;
28343;SDS011;15597;50.914;6.638;2023-03-15T02:34:24;5.55;;;2.13;;
28343;SDS011;15597;50.914;6.638;2023-03-15T02:36:50;6.72;;;2.70;;
28343;SDS011;15597;50.914;6.638;2023-03-15T02:39:17;5.93;;;2.38;;
28343;SDS011;15597;50.914;6.638;2023-03-15T02:41:52;6.10;;;2.22;;
28343;SDS011;15597;50.914;6.638;2023-03-15T02:46:54;7.53;;;2.55;;
28343;SDS011;15597;50.914;6.638;2023-03-15T02:49:26;6.00;;;2.50;;
28343;SDS011;15597;50.914;6.638;2023-03-15T02:51:54;7.35;;;2.55;;
28343;SDS011;15597;50.914;6.638;2023-03-15T02:54:20;10.00;;;2.60;;
28343;SDS011;15597;50.914;6.638;2023-03-15T02:56:45;6.22;;;2.28;;
28343;SDS011;15597;50.914;6.638;2023-03-15T02:59:11;8.25;;;2.97;;
28343;SDS011;15597;50.914;6.638;2023-03-15T03:01:37;8.45;;;2.63;;
28343;SDS011;15597;50.914;6.638;2023-03-15T03:04:03;7.40;;;2.30;;
28343;SDS011;15597;50.914;6.638;2023-03-15T03:06:28;6.20;;;2.03;;
28343;SDS011;15597;50.914;6.638;2023-03-15T03:08:54;7.30;;;2.40;;
28343;SDS011;15597;50.914;6.638;2023-03-15T03:11:20;7.07;;;2.03;;
28343;SDS011;15597;50.914;6.638;2023-03-15T03:13:46;8.10;;;2.53;;
28343;SDS011;15597;50.914;6.638;2023-03-15T03:16:11;7.20;;;2.65;;
28343;SDS011;15597;50.914;6.638;2023-03-15T03:18:37;4.63;;;1.92;;
28343;SDS011;15597;50.914;6.638;2023-03-15T03:21:05;6.85;;;2.45;;
28343;SDS011;15597;50.914;6.638;2023-03-15T03:23:33;7.30;;;2.20;;
28343;SDS011;15597;50.914;6.638;2023-03-15T03:26:00;5.45;;;1.90;;
28343;SDS011;15597;50.914;6.638;2023-03-15T03:28:28;4.55;;;2.00;;
28343;SDS011;15597;50.914;6.638;2023-03-15T03:30:55;5.93;;;1.80;;
28343;SDS011;15597;50.914;6.638;2023-03-15T03:33:22;6.47;;;2.28;;
28343;SDS011;15597;50.914;6.638;2023-03-15T03:35:49;5.68;;;2.17;;
28343;SDS011;15597;50.914;6.638;2023-03-15T03:38:15;5.72;;;1.63;;
28343;SDS011;15597;50.914;6.638;2023-03-15T03:40:45;5.95;;;1.95;;
28343;SDS011;15597;50.914;6.638;2023-03-15T03:43:10;4.80;;;1.80;;
28343;SDS011;15597;50.914;6.638;2023-03-15T03:45:36;4.68;;;2.00;;
28343;SDS011;15597;50.914;6.638;2023-03-15T03:48:02;5.30;;;1.77;;
28343;SDS011;15597;50.914;6.638;2023-03-15T03:50:29;4.60;;;1.80;;
28343;SDS011;15597;50.914;6.638;2023-03-15T03:52:56;6.13;;;1.85;;
28343;SDS011;15597;50.914;6.638;2023-03-15T03:55:26;4.68;;;1.80;;
28343;SDS011;15597;50.914;6.638;2023-03-15T03:57:52;5.57;;;1.75;;
28343;SDS011;15597;50.914;6.638;2023-03-15T04:00:38;4.95;;;2.05;;
28343;SDS011;15597;50.914;6.638;2023-03-15T04:03:05;6.50;;;2.10;;
28343;SDS011;15597;50.914;6.638;2023-03-15T04:05:34;4.80;;;1.52;;
28343;SDS011;15597;50.914;6.638;2023-03-15T04:07:59;4.85;;;1.90;;
28343;SDS011;15597;50.914;6.638;2023-03-15T04:10:28;4.85;;;1.80;;
28343;SDS011;15597;50.914;6.638;2023-03-15T04:12:56;5.47;;;2.08;;
28343;SDS011;15597;50.914;6.638;2023-03-15T04:15:23;4.60;;;1.80;;
28343;SDS011;15597;50.914;6.638;2023-03-15T04:17:49;3.97;;;1.90;;
28343;SDS011;15597;50.914;6.638;2023-03-15T04:20:26;4.63;;;1.77;;
28343;SDS011;15597;50.914;6.638;2023-03-15T04:22:51;6.15;;;1.92;;
28343;SDS011;15597;50.914;6.638;2023-03-15T04:25:41;4.78;;;1.77;;
28343;SDS011;15597;50.914;6.638;2023-03-15T04:28:21;5.80;;;2.13;;
28343;SDS011;15597;50.914;6.638;2023-03-15T04:31:01;4.75;;;1.90;;
28343;SDS011;15597;50.914;6.638;2023-03-15T04:33:45;5.68;;;2.08;;
28343;SDS011;15597;50.914;6.638;2023-03-15T04:36:24;4.72;;;2.20;;
28343;SDS011;15597;50.914;6.638;2023-03-15T04:39:08;5.03;;;2.08;;
28343;SDS011;15597;50.914;6.638;2023-03-15T04:41:47;5.43;;;2.03;;
28343;SDS011;15597;50.914;6.638;2023-03-15T04:44:45;5.88;;;2.45;;
28343;SDS011;15597;50.914;6.638;2023-03-15T04:47:30;5.45;;;2.35;;
28343;SDS011;15597;50.914;6.638;2023-03-15T04:50:28;5.97;;;2.22;;
28343;SDS011;15597;50.914;6.638;2023-03-15T04:53:17;5.40;;;2.65;;
28343;SDS011;15597;50.914;6.638;2023-03-15T04:55:47;5.80;;;2.30;;
28343;SDS011;15597;50.914;6.638;2023-03-15T04:58:33;5.53;;;2.33;;
28343;SDS011;15597;50.914;6.638;2023-03-15T05:01:24;4.97;;;2.10;;
28343;SDS011;15597;50.914;6.638;2023-03-15T05:04:10;5.15;;;2.20;;
28343;SDS011;15597;50.914;6.638;2023-03-15T05:06:53;5.13;;;2.10;;
28343;SDS011;15597;50.914;6.638;2023-03-15T05:09:34;4.50;;;1.63;;
28343;SDS011;15597;50.914;6.638;2023-03-15T05:12:37;5.18;;;2.22;;
28343;SDS011;15597;50.914;6.638;2023-03-15T05:15:21;4.38;;;2.05;;
28343;SDS011;15597;50.914;6.638;2023-03-15T05:18:11;4.85;;;2.28;;
28343;SDS011;15597;50.914;6.638;2023-03-15T05:20:42;5.85;;;2.22;;
28343;SDS011;15597;50.914;6.638;2023-03-15T05:23:14;4.28;;;1.90;;
28343;SDS011;15597;50.914;6.638;2023-03-15T05:26:04;6.38;;;2.47;;
28343;SDS011;15597;50.914;6.638;2023-03-15T05:31:34;4.80;;;2.40;;
28343;SDS011;15597;50.914;6.638;2023-03-15T05:34:19;6.72;;;2.60;;
28343;SDS011;15597;50.914;6.638;2023-03-15T05:36:54;5.05;;;2.60;;
28343;SDS011;15597;50.914;6.638;2023-03-15T05:39:33;5.65;;;1.90;;
28343;SDS011;15597;50.914;6.638;2023-03-15T05:42:09;5.20;;;2.00;;
28343;SDS011;15597;50.914;6.638;2023-03-15T05:44:58;4.85;;;2.30;;
28343;SDS011;15597;50.914;6.638;2023-03-15T05:47:48;6.22;;;2.30;;
28343;SDS011;15597;50.914;6.638;2023-03-15T05:50:23;4.80;;;2.47;;
28343;SDS011;15597;50.914;6.638;2023-03-15T05:52:49;5.28;;;2.13;;
28343;SDS011;15597;50.914;6.638;2023-03-15T05:55:32;5.97;;;2.78;;
28343;SDS011;15597;50.914;6.638;2023-03-15T05:58:33;4.28;;;2.17;;
28343;SDS011;15597;50.914;6.638;2023-03-15T06:01:17;5.70;;;2.55;;
28343;SDS011;15597;50.914;6.638;2023-03-15T06:04:03;7.78;;;3.80;;
28343;SDS011;15597;50.914;6.638;2023-03-15T06:06:31;6.10;;;2.85;;
28343;SDS011;15597;50.914;6.638;2023-03-15T06:08:57;8.57;;;3.60;;
28343;SDS011;15597;50.914;6.638;2023-03-15T06:11:24;6.90;;;3.03;;
28343;SDS011;15597;50.914;6.638;2023-03-15T06:13:50;8.07;;;3.20;;
28343;SDS011;15597;50.914;6.638;2023-03-15T06:16:30;7.18;;;3.67;;
28343;SDS011;15597;50.914;6.638;2023-03-15T06:18:58;10.27;;;4.78;;
28343;SDS011;15597;50.914;6.638;2023-03-15T06:21:24;8.20;;;4.28;;
28343;SDS011;15597;50.914;6.638;2023-03-15T06:23:49;7.65;;;3.28;;
28343;SDS011;15597;50.914;6.638;2023-03-15T06:26:16;9.15;;;3.55;;
28343;SDS011;15597;50.914;6.638;2023-03-15T06:28:44;7.78;;;3.50;;
28343;SDS011;15597;50.914;6.638;2023-03-15T06:31:10;6.15;;;2.80;;
28343;SDS011;15597;50.914;6.638;2023-03-15T06:33:47;8.52;;;4.32;;
28343;SDS011;15597;50.914;6.638;2023-03-15T06:36:12;7.88;;;3.83;;
28343;SDS011;15597;50.914;6.638;2023-03-15T06:38:39;6.75;;;3.30;;
28343;SDS011;15597;50.914;6.638;2023-03-15T06:41:06;7.85;;;3.83;;
28343;SDS011;15597;50.914;6.638;2023-03-15T06:43:34;9.07;;;5.25;;
28343;SDS011;15597;50.914;6.638;2023-03-15T06:46:00;8.10;;;3.85;;
28343;SDS011;15597;50.914;6.638;2023-03-15T06:48:26;6.63;;;3.58;;
28343;SDS011;15597;50.914;6.638;2023-03-15T06:50:52;7.63;;;3.28;;
28343;SDS011;15597;50.914;6.638;2023-03-15T06:53:18;5.30;;;2.30;;
28343;SDS011;15597;50.914;6.638;2023-03-15T06:55:44;6.45;;;2.45;;
28343;SDS011;15597;50.914;6.638;2023-03-15T06:58:11;8.45;;;3.58;;
28343;SDS011;15597;50.914;6.638;2023-03-15T07:00:37;8.55;;;4.40;;
28343;SDS011;15597;50.914;6.638;2023-03-15T07:03:03;6.53;;;3.20;;
28343;SDS011;15597;50.914;6.638;2023-03-15T07:05:29;8.68;;;5.00;;
28343;SDS011;15597;50.914;6.638;2023-03-15T07:07:56;6.70;;;3.08;;
28343;SDS011;15597;50.914;6.638;2023-03-15T07:10:21;6.53;;;3.58;;
28343;SDS011;15597;50.914;6.638;2023-03-15T07:12:47;7.80;;;4.28;;
28343;SDS011;15597;50.914;6.638;2023-03-15T07:15:12;5.22;;;2.53;;
28343;SDS011;15597;50.914;6.638;2023-03-15T07:17:38;6.65;;;3.53;;
28343;SDS011;15597;50.914;6.638;2023-03-15T07:20:04;7.40;;;4.20;;
28343;SDS011;15597;50.914;6.638;2023-03-15T07:22:31;6.80;;;3.60;;
28343;SDS011;15597;50.914;6.638;2023-03-15T07:24:57;5.20;;;2.28;;
28343;SDS011;15597;50.914;6.638;2023-03-15T07:27:22;5.68;;;2.88;;
28343;SDS011;15597;50.914;6.638;2023-03-15T07:29:48;7.57;;;3.63;;
28343;SDS011;15597;50.914;6.638;2023-03-15T07:32:14;7.65;;;4.50;;
28343;SDS011;15597;50.914;6.638;2023-03-15T07:34:39;7.15;;;4.35;;
28343;SDS011;15597;50.914;6.638;2023-03-15T07:37:05;8.07;;;4.10;;
28343;SDS011;15597;50.914;6.638;2023-03-15T07:39:30;8.00;;;4.28;;
28343;SDS011;15597;50.914;6.638;2023-03-15T07:41:59;6.43;;;3.05;;
28343;SDS011;15597;50.914;6.638;2023-03-15T07:44:30;8.80;;;4.63;;
28343;SDS011;15597;50.914;6.638;2023-03-15T07:46:55;6.10;;;2.75;;
28343;SDS011;15597;50.914;6.638;2023-03-15T07:49:21;6.10;;;3.17;;
28343;SDS011;15597;50.914;6.638;2023-03-15T07:51:47;6.13;;;3.00;;
28343;SDS011;15597;50.914;6.638;2023-03-15T07:54:12;8.10;;;3.38;;
28343;SDS011;15597;50.914;6.638;2023-03-15T07:56:38;6.82;;;3.15;;
28343;SDS011;15597;50.914;6.638;2023-03-15T07:59:03;7.07;;;4.05;;
28343;SDS011;15597;50.914;6.638;2023-03-15T08:01:29;6.38;;;3.28;;
28343;SDS011;15597;50.914;6.638;2023-03-15T08:03:54;7.38;;;3.42;;
28343;SDS011;15597;50.914;6.638;2023-03-15T08:06:20;5.38;;;2.42;;
28343;SDS011;15597;50.914;6.638;2023-03-15T08:08:45;8.57;;;4.25;;
28343;SDS011;15597;50.914;6.638;2023-03-15T08:11:11;4.38;;;2.17;;
28343;SDS011;15597;50.914;6.638;2023-03-15T08:13:37;8.20;;;4.05;;
28343;SDS011;15597;50.914;6.638;2023-03-15T08:16:02;11.80;;;6.32;;
28343;SDS011;15597;50.914;6.638;2023-03-15T08:18:28;9.88;;;5.43;;
28343;SDS011;15597;50.914;6.638;2023-03-15T08:20:54;6.88;;;2.60;;
28343;SDS011;15597;50.914;6.638;2023-03-15T08:23:20;10.40;;;4.15;;
28343;SDS011;15597;50.914;6.638;2023-03-15T08:25:46;9.38;;;4.72;;
28343;SDS011;15597;50.914;6.638;2023-03-15T08:28:13;6.72;;;2.95;;
28343;SDS011;15597;50.914;6.638;2023-03-15T08:30:39;9.20;;;4.45;;
28343;SDS011;15597;50.914;6.638;2023-03-15T08:33:04;9.43;;;4.50;;
28343;SDS011;15597;50.914;6.638;2023-03-15T08:35:32;10.43;;;5.03;;
28343;SDS011;15597;50.914;6.638;2023-03-15T08:37:59;7.03;;;3.63;;
28343;SDS011;15597;50.914;6.638;2023-03-15T08:40:27;8.82;;;4.85;;
28343;SDS011;15597;50.914;6.638;2023-03-15T08:42:53;4.63;;;2.38;;
28343;SDS011;15597;50.914;6.638;2023-03-15T08:45:20;9.18;;;3.85;;
28343;SDS011;15597;50.914;6.638;2023-03-15T08:47:46;5.68;;;2.33;;
28343;SDS011;15597;50.914;6.638;2023-03-15T08:50:12;7.03;;;3.65;;
28343;SDS011;15597;50.914;6.638;2023-03-15T08:52:39;6.00;;;2.70;;
28343;SDS011;15597;50.914;6.638;2023-03-15T08:55:06;6.97;;;3.10;;
28343;SDS011;15597;50.914;6.638;2023-03-15T08:57:33;7.00;;;2.88;;
28343;SDS011;15597;50.914;6.638;2023-03-15T08:59:59;5.57;;;2.20;;
28343;SDS011;15597;50.914;6.638;2023-03-15T09:02:26;9.40;;;3.47;;
28343;SDS011;15597;50.914;6.638;2023-03-15T09:04:52;9.68;;;3.88;;
28343;SDS011;15597;50.914;6.638;2023-03-15T09:07:18;5.72;;;2.35;;
28343;SDS011;15597;50.914;6.638;2023-03-15T09:09:45;9.52;;;5.00;;
28343;SDS011;15597;50.914;6.638;2023-03-15T09:12:15;7.32;;;3.63;;
28343;SDS011;15597;50.914;6.638;2023-03-15T09:14:42;8.90;;;3.88;;
28343;SDS011;15597;50.914;6.638;2023-03-15T09:17:08;5.15;;;2.30;;
28343;SDS011;15597;50.914;6.638;2023-03-15T09:19:34;7.43;;;3.53;;
28343;SDS011;15597;50.914;6.638;2023-03-15T09:21:59;4.88;;;2.30;;
28343;SDS011;15597;50.914;6.638;2023-03-15T09:24:26;7.35;;;3.05;;
28343;SDS011;15597;50.914;6.638;2023-03-15T09:26:52;5.18;;;2.35;;
28343;SDS011;15597;50.914;6.638;2023-03-15T09:29:17;6.50;;;2.55;;
28343;SDS011;15597;50.914;6.638;2023-03-15T09:31:43;6.57;;;3.15;;
28343;SDS011;15597;50.914;6.638;2023-03-15T09:34:08;6.50;;;3.40;;
28343;SDS011;15597;50.914;6.638;2023-03-15T09:36:34;11.05;;;3.40;;
28343;SDS011;15597;50.914;6.638;2023-03-15T09:39:00;6.93;;;3.00;;
28343;SDS011;15597;50.914;6.638;2023-03-15T09:49:26;7.28;;;2.42;;
28343;SDS011;15597;50.914;6.638;2023-03-15T09:51:58;7.25;;;2.80;;
28343;SDS011;15597;50.914;6.638;2023-03-15T09:57:03;5.88;;;2.63;;
28343;SDS011;15597;50.914;6.638;2023-03-15T09:59:35;4.53;;;2.45;;
28343;SDS011;15597;50.914;6.638;2023-03-15T10:02:37;5.55;;;2.30;;
28343;SDS011;15597;50.914;6.638;2023-03-15T10:05:07;5.38;;;2.25;;
28343;SDS011;15597;50.914;6.638;2023-03-15T10:07:38;5.78;;;2.58;;
28343;SDS011;15597;50.914;6.638;2023-03-15T10:10:07;7.70;;;2.55;;
28343;SDS011;15597;50.914;6.638;2023-03-15T10:12:39;5.13;;;2.58;;
28343;SDS011;15597;50.914;6.638;2023-03-15T10:20:55;3.85;;;1.80;;
28343;SDS011;15597;50.914;6.638;2023-03-15T10:23:32;5.80;;;2.47;;
28343;SDS011;15597;50.914;6.638;2023-03-15T10:26:09;4.55;;;2.20;;
28343;SDS011;15597;50.914;6.638;2023-03-15T10:28:38;6.25;;;2.30;;
28343;SDS011;15597;50.914;6.638;2023-03-15T10:31:09;7.40;;;2.70;;
28343;SDS011;15597;50.914;6.638;2023-03-15T10:33:38;6.18;;;2.30;;
28343;SDS011;15597;50.914;6.638;2023-03-15T10:36:13;8.45;;;3.47;;
28343;SDS011;15597;50.914;6.638;2023-03-15T10:38:41;6.57;;;3.00;;
28343;SDS011;15597;50.914;6.638;2023-03-15T10:41:07;8.18;;;3.55;;
28343;SDS011;15597;50.914;6.638;2023-03-15T10:43:36;5.60;;;2.72;;
28343;SDS011;15597;50.914;6.638;2023-03-15T10:46:04;5.97;;;2.47;;
28343;SDS011;15597;50.914;6.638;2023-03-15T10:48:33;6.47;;;2.42;;
28343;SDS011;15597;50.914;6.638;2023-03-15T10:51:03;9.25;;;3.30;;
28343;SDS011;15597;50.914;6.638;2023-03-15T10:53:31;7.75;;;3.47;;
28343;SDS011;15597;50.914;6.638;2023-03-15T10:55:58;4.28;;;2.05;;
28343;SDS011;15597;50.914;6.638;2023-03-15T10:58:27;5.18;;;1.90;;
28343;SDS011;15597;50.914;6.638;2023-03-15T11:01:04;8.05;;;2.55;;
28343;SDS011;15597;50.914;6.638;2023-03-15T11:03:32;4.28;;;1.70;;
28343;SDS011;15597;50.914;6.638;2023-03-15T11:05:59;5.22;;;1.80;;
28343;SDS011;15597;50.914;6.638;2023-03-15T11:08:35;7.10;;;2.60;;
28343;SDS011;15597;50.914;6.638;2023-03-15T11:11:04;5.95;;;2.10;;
28343;SDS011;15597;50.914;6.638;2023-03-15T11:13:31;4.03;;;2.10;;
28343;SDS011;15597;50.914;6.638;2023-03-15T11:21:29;6.25;;;2.35;;
28343;SDS011;15597;50.914;6.638;2023-03-15T11:23:57;3.70;;;1.42;;
28343;SDS011;15597;50.914;6.638;2023-03-15T11:26:26;3.08;;;1.52;;
28343;SDS011;15597;50.914;6.638;2023-03-15T11:28:58;5.97;;;2.35;;
28343;SDS011;15597;50.914;6.638;2023-03-15T11:31:26;5.03;;;2.20;;
28343;SDS011;15597;50.914;6.638;2023-03-15T11:33:54;7.95;;;2.15;;
28343;SDS011;15597;50.914;6.638;2023-03-15T11:36:25;8.10;;;2.33;;
28343;SDS011;15597;50.914;6.638;2023-03-15T11:38:54;9.98;;;2.40;;
28343;SDS011;15597;50.914;6.638;2023-03-15T11:41:23;5.78;;;2.20;;
28343;SDS011;15597;50.914;6.638;2023-03-15T11:46:41;4.93;;;1.38;;
28343;SDS011;15597;50.914;6.638;2023-03-15T11:52:16;6.88;;;1.50;;
28343;SDS011;15597;50.914;6.638;2023-03-15T11:54:44;4.82;;;1.52;;
28343;SDS011;15597;50.914;6.638;2023-03-15T11:57:53;5.40;;;1.70;;
28343;SDS011;15597;50.914;6.638;2023-03-15T12:02:54;5.25;;;1.50;;
28343;SDS011;15597;50.914;6.638;2023-03-15T12:08:15;4.18;;;1.30;;
28343;SDS011;15597;50.914;6.638;2023-03-15T12:10:46;3.00;;;1.30;;
28343;SDS011;15597;50.914;6.638;2023-03-15T12:13:24;2.90;;;1.10;;
28343;SDS011;15597;50.914;6.638;2023-03-15T12:15:51;4.57;;;1.55;;
28343;SDS011;15597;50.914;6.638;2023-03-15T12:18:19;4.15;;;1.65;;
28343;SDS011;15597;50.914;6.638;2023-03-15T12:21:08;8.15;;;1.77;;
28343;SDS011;15597;50.914;6.638;2023-03-15T12:26:39;5.65;;;1.30;;
28343;SDS011;15597;50.914;6.638;2023-03-15T12:31:52;4.30;;;1.40;;
28343;SDS011;15597;50.914;6.638;2023-03-15T12:34:23;7.03;;;1.40;;
28343;SDS011;15597;50.914;6.638;2023-03-15T12:36:51;4.40;;;1.10;;
28343;SDS011;15597;50.914;6.638;2023-03-15T12:39:57;2.67;;;1.10;;
28343;SDS011;15597;50.914;6.638;2023-03-15T12:47:49;3.17;;;1.02;;
28343;SDS011;15597;50.914;6.638;2023-03-15T12:55:56;3.13;;;0.90;;
28343;SDS011;15597;50.914;6.638;2023-03-15T12:58:25;3.78;;;1.08;;
28343;SDS011;15597;50.914;6.638;2023-03-15T13:00:56;3.72;;;1.10;;
28343;SDS011;15597;50.914;6.638;2023-03-15T13:03:22;3.08;;;0.93;;
28343;SDS011;15597;50.914;6.638;2023-03-15T13:08:57;3.90;;;1.15;;
28343;SDS011;15597;50.914;6.638;2023-03-15T13:12:19;3.13;;;1.08;;
28343;SDS011;15597;50.914;6.638;2023-03-15T13:19:55;5.25;;;1.10;;
28343;SDS011;15597;50.914;6.638;2023-03-15T13:22:40;2.90;;;0.80;;
28343;SDS011;15597;50.914;6.638;2023-03-15T13:28:04;4.15;;;1.02;;
28343;SDS011;15597;50.914;6.638;2023-03-15T13:30:38;2.53;;;0.90;;
28343;SDS011;15597;50.914;6.638;2023-03-15T13:33:19;2.63;;;0.90;;
28343;SDS011;15597;50.914;6.638;2023-03-15T13:38:27;3.30;;;1.08;;
28343;SDS011;15597;50.914;6.638;2023-03-15T13:41:04;2.10;;;0.90;;
28343;SDS011;15597;50.914;6.638;2023-03-15T13:43:40;3.03;;;1.00;;
28343;SDS011;15597;50.914;6.638;2023-03-15T13:46:09;5.15;;;1.08;;
28343;SDS011;15597;50.914;6.638;2023-03-15T13:48:36;2.72;;;0.80;;
28343;SDS011;15597;50.914;6.638;2023-03-15T13:51:05;3.42;;;0.90;;
28343;SDS011;15597;50.914;6.638;2023-03-15T13:53:37;3.25;;;0.90;;
28343;SDS011;15597;50.914;6.638;2023-03-15T13:56:07;4.95;;;1.25;;
28343;SDS011;15597;50.914;6.638;2023-03-15T13:58:35;3.05;;;1.00;;
28343;SDS011;15597;50.914;6.638;2023-03-15T14:01:03;4.30;;;0.90;;
28343;SDS011;15597;50.914;6.638;2023-03-15T14:03:32;2.92;;;0.90;;
28343;SDS011;15597;50.914;6.638;2023-03-15T14:05:58;4.57;;;1.30;;
28343;SDS011;15597;50.914;6.638;2023-03-15T14:08:28;2.60;;;0.80;;
28343;SDS011;15597;50.914;6.638;2023-03-15T14:16:17;2.38;;;0.90;;
28343;SDS011;15597;50.914;6.638;2023-03-15T14:21:40;4.43;;;1.05;;
28343;SDS011;15597;50.914;6.638;2023-03-15T14:24:13;3.08;;;1.00;;
28343;SDS011;15597;50.914;6.638;2023-03-15T14:26:41;2.42;;;1.00;;
28343;SDS011;15597;50.914;6.638;2023-03-15T14:29:15;2.08;;;0.90;;
28343;SDS011;15597;50.914;6.638;2023-03-15T14:31:46;3.15;;;1.00;;
28343;SDS011;15597;50.914;6.638;2023-03-15T14:34:24;3.45;;;1.17;;
28343;SDS011;15597;50.914;6.638;2023-03-15T14:37:03;3.67;;;0.90;;
28343;SDS011;15597;50.914;6.638;2023-03-15T14:39:38;2.75;;;0.90;;
28343;SDS011;15597;50.914;6.638;2023-03-15T14:42:08;2.92;;;0.88;;
28343;SDS011;15597;50.914;6.638;2023-03-15T14:44:35;1.88;;;0.80;;
28343;SDS011;15597;50.914;6.638;2023-03-15T14:47:05;2.28;;;0.80;;
28343;SDS011;15597;50.914;6.638;2023-03-15T14:49:40;5.07;;;1.05;;
28343;SDS011;15597;50.914;6.638;2023-03-15T14:52:06;2.53;;;0.95;;
28343;SDS011;15597;50.914;6.638;2023-03-15T14:54:32;1.95;;;0.80;;
28343;SDS011;15597;50.914;6.638;2023-03-15T14:56:58;4.28;;;1.00;;
28343;SDS011;15597;50.914;6.638;2023-03-15T14:59:24;3.67;;;1.00;;
28343;SDS011;15597;50.914;6.638;2023-03-15T15:01:53;2.60;;;0.90;;
28343;SDS011;15597;50.914;6.638;2023-03-15T15:04:21;3.05;;;0.90;;
28343;SDS011;15597;50.914;6.638;2023-03-15T15:06:47;2.63;;;0.90;;
28343;SDS011;15597;50.914;6.638;2023-03-15T15:09:18;3.97;;;1.17;;
28343;SDS011;15597;50.914;6.638;2023-03-15T15:11:47;3.33;;;1.00;;
28343;SDS011;15597;50.914;6.638;2023-03-15T15:14:13;3.85;;;0.90;;
28343;SDS011;15597;50.914;6.638;2023-03-15T15:16:39;2.45;;;0.98;;
28343;SDS011;15597;50.914;6.638;2023-03-15T15:19:06;4.43;;;1.25;;
28343;SDS011;15597;50.914;6.638;2023-03-15T15:21:32;3.13;;;1.00;;
28343;SDS011;15597;50.914;6.638;2023-03-15T15:23:57;3.22;;;1.00;;
28343;SDS011;15597;50.914;6.638;2023-03-15T15:26:24;2.72;;;1.10;;
28343;SDS011;15597;50.914;6.638;2023-03-15T15:28:51;4.53;;;0.88;;
28343;SDS011;15597;50.914;6.638;2023-03-15T15:31:18;3.10;;;1.10;;
28343;SDS011;15597;50.914;6.638;2023-03-15T15:33:47;4.40;;;1.00;;
28343;SDS011;15597;50.914;6.638;2023-03-15T15:36:30;4.18;;;1.00;;
28343;SDS011;15597;50.914;6.638;2023-03-15T15:38:58;3.70;;;1.10;;
28343;SDS011;15597;50.914;6.638;2023-03-15T15:41:30;3.47;;;1.00;;
28343;SDS011;15597;50.914;6.638;2023-03-15T15:43:56;3.00;;;1.02;;
28343;SDS011;15597;50.914;6.638;2023-03-15T15:46:22;2.65;;;0.93;;
28343;SDS011;15597;50.914;6.638;2023-03-15T15:48:51;2.92;;;0.93;;
28343;SDS011;15597;50.914;6.638;2023-03-15T15:51:19;2.38;;;0.90;;
28343;SDS011;15597;50.914;6.638;2023-03-15T15:53:48;2.67;;;1.00;;
28343;SDS011;15597;50.914;6.638;2023-03-15T15:56:14;2.70;;;1.10;;
28343;SDS011;15597;50.914;6.638;2023-03-15T15:58:41;6.68;;;1.20;;
28343;SDS011;15597;50.914;6.638;2023-03-15T16:01:11;3.28;;;1.00;;
28343;SDS011;15597;50.914;6.638;2023-03-15T16:03:37;3.83;;;0.95;;
28343;SDS011;15597;50.914;6.638;2023-03-15T16:06:03;2.00;;;0.90;;
28343;SDS011;15597;50.914;6.638;2023-03-15T16:08:29;1.60;;;0.80;;
28343;SDS011;15597;50.914;6.638;2023-03-15T16:10:59;4.75;;;1.42;;
28343;SDS011;15597;50.914;6.638;2023-03-15T16:13:25;2.53;;;0.90;;
28343;SDS011;15597;50.914;6.638;2023-03-15T16:15:51;3.08;;;0.88;;
28343;SDS011;15597;50.914;6.638;2023-03-15T16:18:16;5.22;;;0.90;;
28343;SDS011;15597;50.914;6.638;2023-03-15T16:20:42;4.82;;;1.10;;
28343;SDS011;15597;50.914;6.638;2023-03-15T16:23:13;3.70;;;1.30;;
28343;SDS011;15597;50.914;6.638;2023-03-15T16:25:47;2.95;;;1.02;;
28343;SDS011;15597;50.914;6.638;2023-03-15T16:28:14;3.17;;;0.95;;
28343;SDS011;15597;50.914;6.638;2023-03-15T16:30:40;3.83;;;0.95;;
28343;SDS011;15597;50.914;6.638;2023-03-15T16:33:12;4.53;;;1.40;;
28343;SDS011;15597;50.914;6.638;2023-03-15T16:35:40;2.90;;;0.80;;
28343;SDS011;15597;50.914;6.638;2023-03-15T16:38:07;2.72;;;1.02;;